createdAt,value
2017-11-13T00:00:51.669Z,2.90
2017-11-13T00:03:20.068Z,2.90
2017-11-13T00:05:48.587Z,3.00
2017-11-13T00:08:17.743Z,3.00
2017-11-13T00:10:46.171Z,3.00
2017-11-13T00:13:14.692Z,2.90
2017-11-13T00:15:43.287Z,3.00
2017-11-13T00:18:11.705Z,3.00
2017-11-13T00:20:41.108Z,3.00
2017-11-13T00:23:10.258Z,3.10
2017-11-13T00:25:38.651Z,3.00
2017-11-13T00:28:07.270Z,3.10
2017-11-13T00:30:35.703Z,3.00
2017-11-13T00:33:04.088Z,3.00
2017-11-13T00:35:33.401Z,3.00
2017-11-13T00:38:01.784Z,3.00
2017-11-13T00:40:30.381Z,3.00
2017-11-13T00:42:59.608Z,3.00
2017-11-13T00:45:28.004Z,2.90
2017-11-13T00:47:56.404Z,3.00
2017-11-13T00:50:24.833Z,3.10
2017-11-13T00:52:53.506Z,3.10
2017-11-13T00:55:22.674Z,3.10
2017-11-13T00:57:51.098Z,3.10
2017-11-13T01:00:19.513Z,3.10
2017-11-13T01:02:47.913Z,3.20
2017-11-13T01:05:16.537Z,3.20
2017-11-13T01:07:44.916Z,3.20
2017-11-13T01:10:13.316Z,3.20
2017-11-13T01:12:41.849Z,3.30
2017-11-13T01:15:10.316Z,3.30
2017-11-13T01:17:38.770Z,3.40
2017-11-13T01:20:07.335Z,3.30
2017-11-13T01:22:35.755Z,3.30
2017-11-13T01:25:04.142Z,3.30
2017-11-13T01:27:32.739Z,3.20
2017-11-13T01:30:01.181Z,3.30
2017-11-13T01:32:29.644Z,3.30
2017-11-13T01:34:58.282Z,3.40
2017-11-13T01:37:26.663Z,3.40
2017-11-13T01:39:55.075Z,3.40
2017-11-13T01:42:23.909Z,3.40
2017-11-13T01:44:52.336Z,3.40
2017-11-13T01:47:20.756Z,3.50
2017-11-13T01:49:50.099Z,3.50
2017-11-13T01:52:19.259Z,3.50
2017-11-13T01:54:48.069Z,3.50
2017-11-13T01:57:16.538Z,3.60
2017-11-13T01:59:44.977Z,3.60
2017-11-13T02:02:13.379Z,3.60
2017-11-13T02:04:41.829Z,3.60
2017-11-13T02:07:10.356Z,3.50
2017-11-13T02:09:38.801Z,3.50
2017-11-13T02:12:07.372Z,3.50
2017-11-13T02:14:35.786Z,3.50
2017-11-13T02:17:04.261Z,3.50
2017-11-13T02:19:32.966Z,3.50
2017-11-13T02:22:01.417Z,3.60
2017-11-13T02:24:29.852Z,3.60
2017-11-13T02:26:59.555Z,3.50
2017-11-13T02:29:27.988Z,3.50
2017-11-13T02:31:56.436Z,3.50
2017-11-13T02:34:25.704Z,3.60
2017-11-13T02:36:54.157Z,3.60
2017-11-13T02:39:22.591Z,3.70
2017-11-13T02:41:52.168Z,3.60
2017-11-13T02:44:20.936Z,3.60
2017-11-13T02:46:49.373Z,3.60
2017-11-13T02:49:17.993Z,3.50
2017-11-13T02:51:46.473Z,3.50
2017-11-13T02:54:14.918Z,3.50
2017-11-13T02:56:43.789Z,3.50
2017-11-13T02:59:12.250Z,3.40
2017-11-13T03:01:40.641Z,3.50
2017-11-13T03:04:09.271Z,3.50
2017-11-13T03:06:37.692Z,3.50
2017-11-13T03:09:06.305Z,3.40
2017-11-13T03:11:35.708Z,3.30
2017-11-13T03:14:04.889Z,3.30
2017-11-13T03:16:33.342Z,3.30
2017-11-13T03:19:01.953Z,3.30
2017-11-13T03:21:30.378Z,3.20
2017-11-13T03:23:58.823Z,3.20
2017-11-13T03:26:27.414Z,3.20
2017-11-13T03:28:56.611Z,3.20
2017-11-13T03:31:25.764Z,3.20
2017-11-13T03:33:54.588Z,3.20
2017-11-13T03:36:23.746Z,3.10
2017-11-13T03:38:52.127Z,3.10
2017-11-13T03:41:20.540Z,3.10
2017-11-13T03:43:48.912Z,3.00
2017-11-13T03:46:17.321Z,2.90
2017-11-13T03:48:46.515Z,3.00
2017-11-13T03:51:15.650Z,3.00
2017-11-13T03:53:44.155Z,3.00
2017-11-13T03:56:12.963Z,3.10
2017-11-13T03:58:41.736Z,3.10
2017-11-13T04:01:10.139Z,3.10
2017-11-13T04:03:39.450Z,3.20
2017-11-13T04:06:07.843Z,3.20
2017-11-13T04:08:36.225Z,3.20
2017-11-13T04:11:04.850Z,3.10
2017-11-13T04:13:33.233Z,3.20
2017-11-13T04:16:01.631Z,3.20
2017-11-13T04:18:30.079Z,3.20
2017-11-13T04:20:58.486Z,3.20
2017-11-13T04:23:26.948Z,3.20
2017-11-13T04:25:55.355Z,3.20
2017-11-13T04:28:24.535Z,2.90
2017-11-13T04:30:52.933Z,3.00
2017-11-13T04:33:21.509Z,2.90
2017-11-13T04:35:49.918Z,2.90
2017-11-13T04:38:18.361Z,2.90
2017-11-13T04:40:46.785Z,2.90
2017-11-13T04:43:15.165Z,2.80
2017-11-13T04:45:43.592Z,2.80
2017-11-13T04:48:12.293Z,2.70
2017-11-13T04:50:40.688Z,2.70
2017-11-13T04:53:09.910Z,2.50
2017-11-13T04:55:38.330Z,2.50
2017-11-13T04:58:06.714Z,2.50
2017-11-13T05:00:35.403Z,2.50
2017-11-13T05:03:04.209Z,2.40
2017-11-13T05:05:33.437Z,2.40
2017-11-13T05:08:01.827Z,2.40
2017-11-13T05:10:30.335Z,2.40
2017-11-13T05:12:58.992Z,2.40
2017-11-13T05:15:27.407Z,2.40
2017-11-13T05:17:56.000Z,2.50
2017-11-13T05:20:24.441Z,2.50
2017-11-13T05:22:52.921Z,2.60
2017-11-13T05:25:21.767Z,2.70
2017-11-13T05:27:50.936Z,2.80
2017-11-13T05:30:19.379Z,2.80
2017-11-13T05:32:48.120Z,2.90
2017-11-13T05:35:16.530Z,2.90
2017-11-13T05:37:45.263Z,2.90
2017-11-13T05:40:14.599Z,3.00
2017-11-13T05:42:43.781Z,3.10
2017-11-13T05:45:12.200Z,3.00
2017-11-13T05:47:40.908Z,3.10
2017-11-13T05:50:09.310Z,3.00
2017-11-13T05:52:37.703Z,3.10
2017-11-13T05:55:06.223Z,3.10
2017-11-13T05:57:34.623Z,3.00
2017-11-13T06:00:03.063Z,3.00
2017-11-13T06:02:32.604Z,3.00
2017-11-13T06:05:00.996Z,3.00
2017-11-13T06:07:29.384Z,3.00
2017-11-13T06:09:57.980Z,3.00
2017-11-13T06:12:26.412Z,2.90
2017-11-13T06:14:54.895Z,2.90
2017-11-13T06:17:23.646Z,2.90
2017-11-13T06:19:52.036Z,2.90
2017-11-13T06:22:21.193Z,2.90
2017-11-13T06:24:49.647Z,2.90
2017-11-13T06:27:18.379Z,2.90
2017-11-13T06:29:46.843Z,3.00
2017-11-13T06:32:15.574Z,3.00
2017-11-13T06:34:44.725Z,3.00
2017-11-13T06:37:13.170Z,3.00
2017-11-13T06:39:42.068Z,3.00
2017-11-13T06:42:10.546Z,2.90
2017-11-13T06:44:39.004Z,3.00
2017-11-13T06:47:08.634Z,3.10
2017-11-13T06:49:37.048Z,3.10
2017-11-13T06:52:06.117Z,3.10
2017-11-13T06:54:34.663Z,3.20
2017-11-13T06:57:03.824Z,3.30
2017-11-13T06:59:32.209Z,3.30
2017-11-13T07:02:00.629Z,3.40
2017-11-13T07:04:29.357Z,3.30
2017-11-13T07:06:57.774Z,3.30
2017-11-13T07:09:26.557Z,3.30
2017-11-13T07:11:54.952Z,3.20
2017-11-13T07:14:24.120Z,3.20
2017-11-13T07:16:52.948Z,3.20
2017-11-13T07:19:21.351Z,3.30
2017-11-13T07:21:49.808Z,3.40
2017-11-13T07:24:18.332Z,3.60
2017-11-13T07:26:46.763Z,3.50
2017-11-13T07:29:16.025Z,3.70
2017-11-13T07:31:44.500Z,3.70
2017-11-13T07:34:12.988Z,3.70
2017-11-13T07:36:41.438Z,3.70
2017-11-13T07:39:10.119Z,3.80
2017-11-13T07:41:38.612Z,4.00
2017-11-13T07:44:07.030Z,4.10
2017-11-13T07:46:35.758Z,4.00
2017-11-13T07:49:04.152Z,4.00
2017-11-13T07:51:32.549Z,4.00
2017-11-13T07:54:01.165Z,4.10
2017-11-13T07:56:29.587Z,4.20
2017-11-13T07:58:58.040Z,4.30
2017-11-13T08:01:26.533Z,4.40
2017-11-13T08:03:54.945Z,4.80
2017-11-13T08:06:23.863Z,5.30
2017-11-13T08:08:52.600Z,5.90
2017-11-13T08:11:21.044Z,6.00
2017-11-13T08:13:50.222Z,6.10
2017-11-13T08:16:18.943Z,6.30
2017-11-13T08:18:47.438Z,6.10
2017-11-13T08:21:15.832Z,6.20
2017-11-13T08:23:44.351Z,6.30
2017-11-13T08:26:12.808Z,6.10
2017-11-13T08:28:41.273Z,6.10
2017-11-13T08:31:10.135Z,6.30
2017-11-13T08:33:39.349Z,6.70
2017-11-13T08:36:07.844Z,6.70
2017-11-13T08:38:37.136Z,7.00
2017-11-13T08:41:05.614Z,7.20
2017-11-13T08:43:34.659Z,7.20
2017-11-13T08:46:05.199Z,7.20
2017-11-13T08:48:34.510Z,7.60
2017-11-13T08:51:03.788Z,7.10
2017-11-13T08:53:33.519Z,7.00
2017-11-13T08:56:02.259Z,7.00
2017-11-13T08:58:30.818Z,7.20
2017-11-13T09:01:00.648Z,7.60
2017-11-13T09:03:29.180Z,7.60
2017-11-13T09:05:57.908Z,7.20
2017-11-13T09:08:26.776Z,7.10
2017-11-13T09:10:55.967Z,7.10
2017-11-13T09:13:25.148Z,7.00
2017-11-13T09:15:53.730Z,7.00
2017-11-13T09:18:22.948Z,7.20
2017-11-13T09:20:52.985Z,8.80
2017-11-13T09:23:22.158Z,8.80
2017-11-13T09:25:51.311Z,8.30
2017-11-13T09:28:19.749Z,8.30
2017-11-13T09:30:48.990Z,9.80
2017-11-13T09:33:17.418Z,9.80
2017-11-13T09:35:46.686Z,8.90
2017-11-13T09:38:16.187Z,8.90
2017-11-13T09:40:44.741Z,8.70
2017-11-13T09:43:13.282Z,8.90
2017-11-13T09:45:44.736Z,8.50
2017-11-13T09:48:13.399Z,8.50
2017-11-13T09:50:42.117Z,8.20
2017-11-13T09:53:11.449Z,8.10
2017-11-13T09:55:40.072Z,8.10
2017-11-13T09:58:09.727Z,7.90
2017-11-13T10:00:38.349Z,8.30
2017-11-13T10:03:06.987Z,8.50
2017-11-13T10:05:35.545Z,8.40
2017-11-13T10:08:05.483Z,8.10
2017-11-13T10:10:34.611Z,8.10
2017-11-13T10:13:03.163Z,8.00
2017-11-13T10:15:31.901Z,8.00
2017-11-13T10:18:00.586Z,8.10
2017-11-13T10:20:29.267Z,8.10
2017-11-13T10:22:58.140Z,8.10
2017-11-13T10:25:26.793Z,8.20
2017-11-13T10:27:55.326Z,8.30
2017-11-13T10:30:24.103Z,8.30
2017-11-13T10:32:52.702Z,8.60
2017-11-13T10:35:21.286Z,9.30
2017-11-13T10:37:50.099Z,9.90
2017-11-13T10:40:19.397Z,9.10
2017-11-13T10:42:48.664Z,9.20
2017-11-13T10:45:17.349Z,9.10
2017-11-13T10:47:46.565Z,9.70
2017-11-13T10:50:15.924Z,10.10
2017-11-13T10:52:49.297Z,10.00
2017-11-13T10:55:18.668Z,9.70
2017-11-13T10:57:47.341Z,10.00
2017-11-13T11:00:16.136Z,9.70
2017-11-13T11:02:44.737Z,9.60
2017-11-13T11:05:14.147Z,9.10
2017-11-13T11:07:44.981Z,8.90
2017-11-13T11:10:14.696Z,8.90
2017-11-13T11:12:44.080Z,8.70
2017-11-13T11:15:15.091Z,8.80
2017-11-13T11:17:50.149Z,8.80
2017-11-13T11:20:22.792Z,8.90
2017-11-13T11:26:09.864Z,8.80
2017-11-13T11:28:54.178Z,9.50
2017-11-13T11:31:26.697Z,10.30
2017-11-13T11:34:10.904Z,10.30
2017-11-13T11:36:43.587Z,10.50
2017-11-13T11:39:12.211Z,10.80
2017-11-13T11:41:40.785Z,10.50
2017-11-13T11:44:14.539Z,10.20
2017-11-13T11:46:44.103Z,10.60
2017-11-13T11:49:13.663Z,10.70
2017-11-13T11:51:46.257Z,10.60
2017-11-13T11:54:28.026Z,10.80
2017-11-13T11:57:13.398Z,10.30
2017-11-13T11:59:42.083Z,11.20
2017-11-13T12:02:11.672Z,11.40
2017-11-13T12:04:41.013Z,11.60
2017-11-13T12:07:09.614Z,11.60
2017-11-13T12:09:38.234Z,12.00
2017-11-13T12:12:08.627Z,10.70
2017-11-13T12:14:37.928Z,10.70
2017-11-13T12:17:07.249Z,10.90
2017-11-13T12:19:37.675Z,10.90
2017-11-13T12:22:07.379Z,10.10
2017-11-13T12:27:15.594Z,11.00
2017-11-13T12:29:44.215Z,11.00
2017-11-13T12:32:13.372Z,10.70
2017-11-13T12:34:43.304Z,10.70
2017-11-13T12:37:11.851Z,10.80
2017-11-13T12:39:41.321Z,10.90
2017-11-13T12:42:10.088Z,10.80
2017-11-13T12:44:40.127Z,10.90
2017-11-13T12:47:08.688Z,10.90
2017-11-13T12:49:37.303Z,10.80
2017-11-13T12:52:07.464Z,10.40
2017-11-13T12:54:39.653Z,10.70
2017-11-13T12:57:09.373Z,10.70
2017-11-13T12:59:40.008Z,10.80
2017-11-13T13:02:10.700Z,10.50
2017-11-13T13:04:43.177Z,10.50
2017-11-13T13:07:12.482Z,10.70
2017-11-13T13:09:41.105Z,10.70
2017-11-13T13:12:10.760Z,10.80
2017-11-13T13:14:41.080Z,11.00
2017-11-13T13:17:10.281Z,10.70
2017-11-13T13:19:41.047Z,10.70
2017-11-13T13:22:10.339Z,10.60
2017-11-13T13:24:41.131Z,10.50
2017-11-13T13:27:12.085Z,10.10
2017-11-13T13:29:42.562Z,10.30
2017-11-13T13:32:14.146Z,11.00
2017-11-13T13:34:43.155Z,11.00
2017-11-13T13:37:11.807Z,10.40
2017-11-13T13:39:42.052Z,10.40
2017-11-13T13:42:19.456Z,10.30
2017-11-13T13:44:48.750Z,10.00
2017-11-13T13:47:19.432Z,10.30
2017-11-13T13:49:48.855Z,10.10
2017-11-13T13:52:17.745Z,10.50
2017-11-13T13:54:47.074Z,10.30
2017-11-13T13:57:17.055Z,10.30
2017-11-13T13:59:46.433Z,10.10
2017-11-13T14:02:18.810Z,10.10
2017-11-13T14:04:47.830Z,10.20
2017-11-13T14:07:17.361Z,9.80
2017-11-13T14:09:46.641Z,9.80
2017-11-13T14:12:16.834Z,9.90
2017-11-13T14:14:50.041Z,9.90
2017-11-13T14:17:19.411Z,9.60
2017-11-13T14:19:48.028Z,9.60
2017-11-13T14:22:18.599Z,9.70
2017-11-13T14:24:47.171Z,9.70
2017-11-13T14:27:15.705Z,9.60
2017-11-13T14:29:44.615Z,9.70
2017-11-13T14:32:16.903Z,9.80
2017-11-13T14:34:46.386Z,9.80
2017-11-13T14:37:15.765Z,9.50
2017-11-13T14:39:44.474Z,9.50
2017-11-13T14:42:13.868Z,9.40
2017-11-13T14:44:42.517Z,9.40
2017-11-13T14:47:12.260Z,9.20
2017-11-13T14:49:40.790Z,9.00
2017-11-13T14:52:09.769Z,9.00
2017-11-13T14:54:38.340Z,8.80
2017-11-13T14:57:06.882Z,8.90
2017-11-13T14:59:39.967Z,9.00
2017-11-13T15:02:08.887Z,8.80
2017-11-13T15:04:40.468Z,8.40
2017-11-13T15:07:12.544Z,8.30
2017-11-13T15:09:41.030Z,8.00
2017-11-13T15:12:09.509Z,8.10
2017-11-13T15:14:38.984Z,8.00
2017-11-13T15:17:07.699Z,8.10
2017-11-13T15:19:36.134Z,7.80
2017-11-13T15:22:04.962Z,7.80
2017-11-13T15:24:33.406Z,7.70
2017-11-13T15:27:03.068Z,7.60
2017-11-13T15:29:32.562Z,7.60
2017-11-13T15:32:01.000Z,7.60
2017-11-13T15:34:29.474Z,7.50
2017-11-13T15:36:58.164Z,7.50
2017-11-13T15:39:26.783Z,7.50
2017-11-13T15:41:55.976Z,7.10
2017-11-13T15:44:24.730Z,7.00
2017-11-13T15:46:53.141Z,6.90
2017-11-13T15:49:22.530Z,6.80
2017-11-13T15:51:52.169Z,6.70
2017-11-13T15:54:21.535Z,6.70
2017-11-13T15:56:49.953Z,6.80
2017-11-13T15:59:18.942Z,6.70
2017-11-13T16:01:47.350Z,6.70
2017-11-13T16:04:16.048Z,6.60
2017-11-13T16:06:44.908Z,6.50
2017-11-13T16:09:13.361Z,6.50
2017-11-13T16:11:41.812Z,6.40
2017-11-13T16:14:10.393Z,6.30
2017-11-13T16:16:40.103Z,6.10
2017-11-13T16:19:08.937Z,6.00
2017-11-13T16:21:37.528Z,5.80
2017-11-13T16:24:06.002Z,5.70
2017-11-13T16:26:34.440Z,5.70
2017-11-13T16:29:03.276Z,5.60
2017-11-13T16:31:31.767Z,5.80
2017-11-13T16:34:00.489Z,5.90
2017-11-13T16:36:29.256Z,5.70
2017-11-13T16:38:57.794Z,5.50
2017-11-13T16:41:27.844Z,5.30
2017-11-13T16:43:56.332Z,5.30
2017-11-13T16:46:24.781Z,5.10
2017-11-13T16:48:53.187Z,5.20
2017-11-13T16:51:21.696Z,5.10
2017-11-13T16:53:50.622Z,4.90
2017-11-13T16:56:19.825Z,4.80
2017-11-13T16:58:49.119Z,4.80
2017-11-13T17:01:18.391Z,4.70
2017-11-13T17:03:46.861Z,4.70
2017-11-13T17:06:15.317Z,4.70
2017-11-13T17:08:43.739Z,4.70
2017-11-13T17:11:12.193Z,4.60
2017-11-13T17:13:41.013Z,4.50
2017-11-13T17:16:09.471Z,4.50
2017-11-13T17:18:37.982Z,4.40
2017-11-13T17:21:07.564Z,4.30
2017-11-13T17:23:36.032Z,4.30
2017-11-13T17:26:05.317Z,4.10
2017-11-13T17:28:33.801Z,4.10
2017-11-13T17:31:02.247Z,4.10
2017-11-13T17:33:31.452Z,4.10
2017-11-13T17:36:00.011Z,4.10
2017-11-13T17:38:28.439Z,4.00
2017-11-13T17:40:56.897Z,4.10
2017-11-13T17:43:25.569Z,4.10
2017-11-13T17:45:54.804Z,4.00
2017-11-13T17:48:23.268Z,4.00
2017-11-13T17:50:51.931Z,3.90
2017-11-13T17:53:21.109Z,3.70
2017-11-13T17:55:49.547Z,3.70
2017-11-13T17:58:18.128Z,3.70
2017-11-13T18:00:46.621Z,3.50
2017-11-13T18:03:15.131Z,3.50
2017-11-13T18:05:43.783Z,3.50
2017-11-13T18:08:12.629Z,3.60
2017-11-13T18:10:41.877Z,3.70
2017-11-13T18:13:11.064Z,3.70
2017-11-13T18:15:39.485Z,3.70
2017-11-13T18:18:08.799Z,3.50
2017-11-13T18:20:38.107Z,3.40
2017-11-13T18:23:06.924Z,3.40
2017-11-13T18:25:35.368Z,3.40
2017-11-13T18:28:04.004Z,3.30
2017-11-13T18:30:32.486Z,3.20
2017-11-13T18:33:00.972Z,3.20
2017-11-13T18:35:29.575Z,3.30
2017-11-13T18:37:57.990Z,3.20
2017-11-13T18:40:26.396Z,3.20
2017-11-13T18:42:55.066Z,3.10
2017-11-13T18:45:23.579Z,3.10
2017-11-13T18:47:51.990Z,3.10
2017-11-13T18:50:20.465Z,3.00
2017-11-13T18:52:48.918Z,2.90
2017-11-13T18:55:17.360Z,2.80
2017-11-13T18:57:46.111Z,2.70
2017-11-13T19:00:14.544Z,2.70
2017-11-13T19:02:42.976Z,2.60
2017-11-13T19:05:11.706Z,2.70
2017-11-13T19:07:40.163Z,2.70
2017-11-13T19:10:09.370Z,2.50
2017-11-13T19:12:38.923Z,2.50
2017-11-13T19:15:07.347Z,2.50
2017-11-13T19:17:36.569Z,2.40
2017-11-13T19:20:05.216Z,2.40
2017-11-13T19:22:34.482Z,2.50
2017-11-13T19:25:03.221Z,2.50
2017-11-13T19:27:31.678Z,2.50
2017-11-13T19:30:00.128Z,2.40
2017-11-13T19:32:28.524Z,2.40
2017-11-13T19:34:57.033Z,2.40
2017-11-13T19:37:26.190Z,2.30
2017-11-13T19:39:54.731Z,2.30
2017-11-13T19:42:23.427Z,2.30
2017-11-13T19:44:51.839Z,2.30
2017-11-13T19:47:20.682Z,2.20
2017-11-13T19:49:49.170Z,2.10
2017-11-13T19:52:17.655Z,2.00
2017-11-13T19:54:46.136Z,2.10
2017-11-13T19:57:14.661Z,2.10
2017-11-13T19:59:43.877Z,2.10
2017-11-13T20:02:12.268Z,2.10
2017-11-13T20:04:40.737Z,2.10
2017-11-13T20:07:09.148Z,2.00
2017-11-13T20:09:37.858Z,2.00
2017-11-13T20:12:06.898Z,1.70
2017-11-13T20:14:36.133Z,1.80
2017-11-13T20:17:04.559Z,1.80
2017-11-13T20:19:33.102Z,1.80
2017-11-13T20:22:01.556Z,1.80
2017-11-13T20:24:30.026Z,1.70
2017-11-13T20:26:59.940Z,1.70
2017-11-13T20:29:28.464Z,1.70
2017-11-13T20:31:56.871Z,1.80
2017-11-13T20:34:25.357Z,1.70
2017-11-13T20:36:53.823Z,1.70
2017-11-13T20:39:22.216Z,1.60
2017-11-13T20:41:52.263Z,1.60
2017-11-13T20:44:21.477Z,1.60
2017-11-13T20:46:50.765Z,1.60
2017-11-13T20:49:20.140Z,1.50
2017-11-13T20:51:48.585Z,1.50
2017-11-13T20:54:17.028Z,1.50
2017-11-13T20:56:46.355Z,1.50
2017-11-13T20:59:14.764Z,1.50
2017-11-13T21:01:43.232Z,1.50
2017-11-13T21:04:11.773Z,1.50
2017-11-13T21:06:40.443Z,1.50
2017-11-13T21:09:09.613Z,1.30
2017-11-13T21:11:38.293Z,1.30
2017-11-13T21:14:07.034Z,1.30
2017-11-13T21:16:36.181Z,1.20
2017-11-13T21:19:04.797Z,1.30
2017-11-13T21:21:33.964Z,1.40
2017-11-13T21:24:02.404Z,1.40
2017-11-13T21:26:31.083Z,1.40
2017-11-13T21:28:59.724Z,1.40
2017-11-13T21:31:29.017Z,1.40
2017-11-13T21:33:57.626Z,1.30
2017-11-13T21:36:26.065Z,1.20
2017-11-13T21:38:54.564Z,1.30
2017-11-13T21:41:23.164Z,1.20
2017-11-13T21:43:51.680Z,1.10
2017-11-13T21:46:20.068Z,1.10
2017-11-13T21:48:48.715Z,1.00
2017-11-13T21:51:17.367Z,1.00
2017-11-13T21:53:45.758Z,0.90
2017-11-13T21:56:14.211Z,1.00
2017-11-13T21:58:42.622Z,0.90
2017-11-13T22:01:11.046Z,0.80
2017-11-13T22:03:39.566Z,0.70
2017-11-13T22:06:08.052Z,0.90
2017-11-13T22:08:36.462Z,0.90
2017-11-13T22:11:04.952Z,0.90
2017-11-13T22:13:33.349Z,0.90
2017-11-13T22:16:02.986Z,0.80
2017-11-13T22:18:31.566Z,0.80
2017-11-13T22:21:00.087Z,0.70
2017-11-13T22:23:28.561Z,0.70
2017-11-13T22:25:57.320Z,0.70
2017-11-13T22:28:25.837Z,0.60
2017-11-13T22:30:54.378Z,0.60
2017-11-13T22:33:23.800Z,0.60
2017-11-13T22:35:52.245Z,0.60
2017-11-13T22:38:20.681Z,0.60
2017-11-13T22:40:49.364Z,0.60
2017-11-13T22:43:17.824Z,0.60
2017-11-13T22:45:46.275Z,0.60
2017-11-13T22:48:15.150Z,0.60
2017-11-13T22:50:43.630Z,0.60
2017-11-13T22:53:12.869Z,0.70
2017-11-13T22:55:41.468Z,0.60
2017-11-13T22:58:09.854Z,0.60
2017-11-13T23:00:38.271Z,0.60
2017-11-13T23:03:07.492Z,0.50
2017-11-13T23:05:36.222Z,0.50
2017-11-13T23:08:04.661Z,0.60
2017-11-13T23:10:33.323Z,0.60
2017-11-13T23:13:02.486Z,0.60
2017-11-13T23:15:30.912Z,0.50
2017-11-13T23:17:59.570Z,0.50
2017-11-13T23:20:27.967Z,0.50
2017-11-13T23:22:56.363Z,0.40
2017-11-13T23:25:24.926Z,0.40
2017-11-13T23:27:53.329Z,0.30
2017-11-13T23:30:21.803Z,0.30
2017-11-13T23:32:50.573Z,0.30
2017-11-13T23:35:18.999Z,0.30
2017-11-13T23:37:47.426Z,0.20
2017-11-13T23:40:15.934Z,0.20
2017-11-13T23:42:44.351Z,0.10
2017-11-13T23:45:12.799Z,0.10
2017-11-13T23:47:41.653Z,0.30
2017-11-13T23:50:10.861Z,0.20
2017-11-13T23:52:39.685Z,0.20
2017-11-13T23:55:08.234Z,0.30
2017-11-13T23:57:37.434Z,0.30
